Time;durP1;ratioP1;P1;durP2;ratioP2;P2;SDS_P1;SDS_P2;PMS_P1;PMS_P2;Temp;Humidity;BMP_temperature;BMP_pressure;BME280_temperature;BME280_humidity;BME280_pressure;Samples;Min_cycle;Max_cycle;Signal;HPM_P1;HPM_P2
2023/05/31 00:00:07;;;;;;;2.78;1.50;;;;;;;;;;5089966;27;20238;-54
2023/05/31 00:02:35;;;;;;;4.18;1.75;;;;;;;;;;5089435;28;20238;-52
2023/05/31 00:05:02;;;;;;;3.00;1.65;;;;;;;;;;5090870;27;20236;-52
2023/05/31 00:07:28;;;;;;;2.42;1.70;;;;;;;;;;5089798;28;20226;-51
2023/05/31 00:09:55;;;;;;;3.03;1.75;;;;;;;;;;5085638;27;20250;-50
2023/05/31 00:12:22;;;;;;;1.90;1.80;;;;;;;;;;5078736;27;20735;-53
2023/05/31 00:14:48;;;;;;;1.92;1.60;;;;;;;;;;5078969;27;20226;-52
2023/05/31 00:17:15;;;;;;;1.80;1.35;;;;;;;;;;5089278;28;20233;-52
2023/05/31 00:19:43;;;;;;;2.50;1.63;;;;;;;;;;5086158;27;20275;-52
2023/05/31 00:22:09;;;;;;;3.00;1.67;;;;;;;;;;5088249;27;20249;-52
2023/05/31 00:24:36;;;;;;;1.65;1.52;;;;;;;;;;5089773;28;20237;-52
2023/05/31 00:27:03;;;;;;;2.38;1.95;;;;;;;;;;5085367;28;20229;-52
2023/05/31 00:29:29;;;;;;;2.50;1.65;;;;;;;;;;5083100;27;20226;-52
2023/05/31 00:31:57;;;;;;;5.45;1.73;;;;;;;;;;5087940;27;20907;-51
2023/05/31 00:34:23;;;;;;;2.58;2.25;;;;;;;;;;5080344;27;20306;-53
2023/05/31 00:36:52;;;;;;;2.00;1.77;;;;;;;;;;5089684;28;20222;-53
2023/05/31 00:39:18;;;;;;;3.35;1.92;;;;;;;;;;5094278;28;20290;-52
2023/05/31 00:41:45;;;;;;;3.53;1.48;;;;;;;;;;5103374;27;20231;-52
2023/05/31 00:44:12;;;;;;;1.65;1.55;;;;;;;;;;5099225;27;20704;-52
2023/05/31 00:46:47;;;;;;;3.00;1.70;;;;;;;;;;5101212;27;20349;-51
2023/05/31 00:49:14;;;;;;;2.33;1.60;;;;;;;;;;5104038;27;20587;-52
2023/05/31 00:51:41;;;;;;;2.28;1.90;;;;;;;;;;5096246;27;20241;-53
2023/05/31 00:54:10;;;;;;;4.18;1.73;;;;;;;;;;5083418;27;20739;-53
2023/05/31 00:56:36;;;;;;;1.85;1.15;;;;;;;;;;5085374;28;20223;-52
2023/05/31 00:59:03;;;;;;;4.38;2.03;;;;;;;;;;5082916;28;20230;-52
2023/05/31 01:01:32;;;;;;;3.45;1.80;;;;;;;;;;5076079;28;20222;-52
2023/05/31 01:03:59;;;;;;;2.45;1.65;;;;;;;;;;5086348;28;20325;-53
2023/05/31 01:06:32;;;;;;;2.05;1.63;;;;;;;;;;5081759;28;20376;-52
2023/05/31 01:08:59;;;;;;;3.65;1.67;;;;;;;;;;5103284;28;20234;-52
2023/05/31 01:11:31;;;;;;;2.53;1.52;;;;;;;;;;5081125;28;20230;-52
2023/05/31 01:14:02;;;;;;;4.82;1.85;;;;;;;;;;5074952;28;20242;-51
2023/05/31 01:16:32;;;;;;;2.45;1.73;;;;;;;;;;5082216;28;20223;-50
2023/05/31 01:19:02;;;;;;;1.98;1.73;;;;;;;;;;5080498;28;20234;-51
2023/05/31 01:21:34;;;;;;;3.35;1.80;;;;;;;;;;5068746;28;20322;-51
2023/05/31 01:24:06;;;;;;;3.90;1.95;;;;;;;;;;5084907;28;20459;-52
2023/05/31 01:26:38;;;;;;;2.05;1.70;;;;;;;;;;5084137;28;20696;-53
2023/05/31 01:29:06;;;;;;;2.53;1.63;;;;;;;;;;5086260;28;20785;-53
2023/05/31 01:31:34;;;;;;;3.05;1.90;;;;;;;;;;5081619;28;20226;-52
2023/05/31 01:34:01;;;;;;;3.03;2.05;;;;;;;;;;5082477;28;20231;-52
2023/05/31 01:36:28;;;;;;;2.08;1.55;;;;;;;;;;5085988;28;20341;-51
2023/05/31 01:38:54;;;;;;;3.53;2.13;;;;;;;;;;5086161;28;20230;-54
2023/05/31 01:41:21;;;;;;;4.72;2.17;;;;;;;;;;5082664;28;20250;-53
2023/05/31 01:43:50;;;;;;;3.40;2.05;;;;;;;;;;5086146;28;20282;-52
2023/05/31 01:46:18;;;;;;;5.72;2.45;;;;;;;;;;5084908;28;20237;-52
2023/05/31 01:48:46;;;;;;;6.53;2.53;;;;;;;;;;5081051;28;20242;-52
2023/05/31 01:51:14;;;;;;;4.38;2.90;;;;;;;;;;5077982;28;20245;-52
2023/05/31 01:53:41;;;;;;;3.15;2.10;;;;;;;;;;5084897;28;20234;-52
2023/05/31 01:56:08;;;;;;;3.58;2.17;;;;;;;;;;5082029;28;20235;-51
2023/05/31 01:58:36;;;;;;;2.30;1.55;;;;;;;;;;5083797;28;20231;-52
2023/05/31 02:01:04;;;;;;;2.92;1.88;;;;;;;;;;5084906;28;20227;-52
2023/05/31 02:03:30;;;;;;;4.28;2.08;;;;;;;;;;5082213;28;20256;-52
2023/05/31 02:05:58;;;;;;;4.20;2.45;;;;;;;;;;5079280;28;20733;-53
2023/05/31 02:08:25;;;;;;;3.35;1.95;;;;;;;;;;5077751;28;20226;-50
2023/05/31 02:10:51;;;;;;;2.97;2.13;;;;;;;;;;5080189;28;20231;-52
2023/05/31 02:13:19;;;;;;;2.60;2.13;;;;;;;;;;5082084;28;20783;-53
2023/05/31 02:15:45;;;;;;;3.28;2.72;;;;;;;;;;5085402;28;20234;-53
2023/05/31 02:18:16;;;;;;;2.03;1.85;;;;;;;;;;5084263;28;20247;-53
2023/05/31 02:20:43;;;;;;;2.30;2.00;;;;;;;;;;5093236;28;20603;-50
2023/05/31 02:23:09;;;;;;;2.85;1.42;;;;;;;;;;5079846;28;20227;-53
2023/05/31 02:25:36;;;;;;;4.03;1.70;;;;;;;;;;5084691;28;20443;-54
2023/05/31 02:28:03;;;;;;;2.42;1.83;;;;;;;;;;5084299;28;20468;-54
2023/05/31 02:30:31;;;;;;;1.55;1.45;;;;;;;;;;5084248;28;20325;-52
2023/05/31 02:32:59;;;;;;;1.85;1.63;;;;;;;;;;5093086;28;20230;-50
2023/05/31 02:35:27;;;;;;;3.28;1.90;;;;;;;;;;5085683;28;20276;-52
2023/05/31 02:37:54;;;;;;;2.83;1.77;;;;;;;;;;5085827;28;20245;-53
2023/05/31 02:40:21;;;;;;;2.92;1.40;;;;;;;;;;5089045;28;20226;-52
2023/05/31 02:42:47;;;;;;;1.92;1.70;;;;;;;;;;5084528;28;20256;-52
2023/05/31 02:45:14;;;;;;;2.67;2.17;;;;;;;;;;5073986;28;20295;-53
2023/05/31 02:47:41;;;;;;;2.97;1.83;;;;;;;;;;5075675;28;20805;-51
2023/05/31 02:50:09;;;;;;;2.55;1.80;;;;;;;;;;5085135;28;20226;-53
2023/05/31 02:52:37;;;;;;;1.92;1.70;;;;;;;;;;5083823;28;20246;-53
2023/05/31 02:55:04;;;;;;;3.78;1.85;;;;;;;;;;5084682;28;20234;-52
2023/05/31 02:57:31;;;;;;;2.72;1.52;;;;;;;;;;5083461;28;20238;-53
2023/05/31 02:59:58;;;;;;;3.63;2.15;;;;;;;;;;5085266;28;20660;-52
2023/05/31 03:02:25;;;;;;;2.97;1.73;;;;;;;;;;5083702;28;20227;-53
2023/05/31 03:04:52;;;;;;;3.08;1.75;;;;;;;;;;5083446;28;20322;-52
2023/05/31 03:07:19;;;;;;;1.85;1.70;;;;;;;;;;5081178;28;20237;-50
2023/05/31 03:09:47;;;;;;;3.03;1.90;;;;;;;;;;5080784;28;20258;-53
2023/05/31 03:12:13;;;;;;;3.22;1.85;;;;;;;;;;5082996;28;20240;-55
2023/05/31 03:14:40;;;;;;;3.88;2.22;;;;;;;;;;5084506;28;20226;-51
2023/05/31 03:17:07;;;;;;;2.63;1.50;;;;;;;;;;5086602;28;20230;-51
2023/05/31 03:19:34;;;;;;;3.58;2.22;;;;;;;;;;5092573;28;20227;-53
2023/05/31 03:22:00;;;;;;;2.60;2.17;;;;;;;;;;5088994;28;20238;-53
2023/05/31 03:24:27;;;;;;;3.83;1.85;;;;;;;;;;5091397;28;20723;-58
2023/05/31 03:26:55;;;;;;;3.05;2.00;;;;;;;;;;5087097;28;20269;-53
2023/05/31 03:29:22;;;;;;;4.18;2.08;;;;;;;;;;5082360;28;20893;-54
2023/05/31 03:31:49;;;;;;;2.35;2.00;;;;;;;;;;5083141;28;20322;-53
2023/05/31 03:34:15;;;;;;;4.68;1.92;;;;;;;;;;5085389;28;20239;-52
2023/05/31 03:36:42;;;;;;;4.80;1.67;;;;;;;;;;5083126;28;20314;-51
2023/05/31 03:39:08;;;;;;;2.75;1.90;;;;;;;;;;5072996;28;20234;-52
2023/05/31 03:41:35;;;;;;;2.03;1.80;;;;;;;;;;5078365;28;20223;-52
2023/05/31 03:44:03;;;;;;;3.40;1.67;;;;;;;;;;5080359;28;20234;-52
2023/05/31 03:46:30;;;;;;;5.13;2.53;;;;;;;;;;5069371;28;20223;-53
2023/05/31 03:48:57;;;;;;;3.70;2.08;;;;;;;;;;5081601;28;20253;-51
2023/05/31 03:51:24;;;;;;;1.85;1.70;;;;;;;;;;5073399;28;20750;-54
2023/05/31 03:53:50;;;;;;;4.18;2.65;;;;;;;;;;5075292;28;20230;-50
2023/05/31 03:56:17;;;;;;;7.07;2.00;;;;;;;;;;5082465;28;20279;-53
2023/05/31 03:58:43;;;;;;;2.58;1.63;;;;;;;;;;5081363;28;20246;-54
2023/05/31 04:01:12;;;;;;;3.60;1.88;;;;;;;;;;5081722;28;20969;-52
2023/05/31 04:03:39;;;;;;;6.38;2.75;;;;;;;;;;5070770;28;20242;-51
2023/05/31 04:06:05;;;;;;;4.25;2.33;;;;;;;;;;5080136;28;20237;-52
2023/05/31 04:08:32;;;;;;;3.92;2.80;;;;;;;;;;5080352;28;20261;-52
2023/05/31 04:10:59;;;;;;;3.47;2.45;;;;;;;;;;5079709;28;20323;-53
2023/05/31 04:13:25;;;;;;;4.57;2.50;;;;;;;;;;5082699;28;20234;-53
2023/05/31 04:15:52;;;;;;;2.90;2.10;;;;;;;;;;5066573;28;20315;-52
2023/05/31 04:18:23;;;;;;;3.88;2.15;;;;;;;;;;5069618;28;20281;-52
2023/05/31 04:20:49;;;;;;;3.60;2.40;;;;;;;;;;5073441;28;20402;-51
2023/05/31 04:23:16;;;;;;;4.20;2.00;;;;;;;;;;5081860;28;20249;-52
2023/05/31 04:25:44;;;;;;;3.78;2.70;;;;;;;;;;5083544;28;20983;-52
2023/05/31 04:28:12;;;;;;;5.07;2.97;;;;;;;;;;5084801;28;20230;-52
2023/05/31 04:30:39;;;;;;;3.67;2.83;;;;;;;;;;5087287;28;20284;-53
2023/05/31 04:33:06;;;;;;;6.53;2.97;;;;;;;;;;5086101;28;20268;-50
2023/05/31 04:35:34;;;;;;;5.72;2.90;;;;;;;;;;5086761;28;20270;-52
2023/05/31 04:38:02;;;;;;;2.90;1.85;;;;;;;;;;5078702;28;20763;-51
2023/05/31 04:40:31;;;;;;;4.40;2.28;;;;;;;;;;5075381;28;20717;-50
2023/05/31 04:42:58;;;;;;;3.53;2.20;;;;;;;;;;5066976;28;20239;-52
2023/05/31 04:45:25;;;;;;;5.53;2.67;;;;;;;;;;5079055;28;20291;-51
2023/05/31 04:47:51;;;;;;;1.83;1.63;;;;;;;;;;5087423;28;20351;-53
2023/05/31 04:50:18;;;;;;;6.82;2.20;;;;;;;;;;5078025;28;20322;-50
2023/05/31 04:52:46;;;;;;;5.03;3.20;;;;;;;;;;5083836;28;20234;-51
2023/05/31 04:55:13;;;;;;;5.20;2.58;;;;;;;;;;5083345;28;20946;-53
2023/05/31 04:57:40;;;;;;;4.88;2.33;;;;;;;;;;5091485;28;20245;-52
2023/05/31 05:00:09;;;;;;;4.25;2.30;;;;;;;;;;5082797;28;20234;-54
2023/05/31 05:02:36;;;;;;;3.88;2.90;;;;;;;;;;5085310;28;20776;-51
2023/05/31 05:05:04;;;;;;;2.33;2.13;;;;;;;;;;5083978;28;20238;-51
2023/05/31 05:07:30;;;;;;;6.72;3.55;;;;;;;;;;5081179;28;20261;-53
2023/05/31 05:09:59;;;;;;;6.93;3.92;;;;;;;;;;5074245;28;20228;-52
2023/05/31 05:12:25;;;;;;;7.78;3.33;;;;;;;;;;5085721;28;20291;-54
2023/05/31 05:14:52;;;;;;;3.75;3.10;;;;;;;;;;5081107;28;20317;-54
2023/05/31 05:17:19;;;;;;;3.03;2.47;;;;;;;;;;5078235;28;20583;-52
2023/05/31 05:19:45;;;;;;;3.90;2.55;;;;;;;;;;5074392;28;20230;-51
2023/05/31 05:22:12;;;;;;;4.75;2.00;;;;;;;;;;5079102;28;20246;-53
2023/05/31 05:24:39;;;;;;;5.22;3.80;;;;;;;;;;5087959;28;20242;-51
2023/05/31 05:27:07;;;;;;;3.83;2.40;;;;;;;;;;5078513;28;20242;-53
2023/05/31 05:29:35;;;;;;;2.95;1.95;;;;;;;;;;5087308;28;20247;-52
2023/05/31 05:32:01;;;;;;;5.72;2.63;;;;;;;;;;5087195;28;20226;-53
2023/05/31 05:34:28;;;;;;;6.78;2.78;;;;;;;;;;5082056;28;20237;-52
2023/05/31 05:36:55;;;;;;;7.25;2.90;;;;;;;;;;5085787;28;20235;-51
2023/05/31 05:39:22;;;;;;;4.65;2.90;;;;;;;;;;5086225;28;20317;-52
2023/05/31 05:41:49;;;;;;;9.27;4.07;;;;;;;;;;5085427;28;20231;-52
2023/05/31 05:44:17;;;;;;;4.40;3.05;;;;;;;;;;5080837;28;20234;-52
2023/05/31 05:46:44;;;;;;;10.27;3.25;;;;;;;;;;5086904;28;20230;-51
2023/05/31 05:49:11;;;;;;;3.00;2.70;;;;;;;;;;5095329;28;20246;-51
2023/05/31 05:51:38;;;;;;;3.80;3.20;;;;;;;;;;5096872;28;20227;-53
2023/05/31 05:54:04;;;;;;;5.70;3.10;;;;;;;;;;5095059;27;20231;-53
2023/05/31 05:56:31;;;;;;;5.55;2.63;;;;;;;;;;5091287;28;20231;-55
2023/05/31 05:58:58;;;;;;;4.60;3.25;;;;;;;;;;5105374;28;20264;-59
2023/05/31 06:01:26;;;;;;;6.43;3.35;;;;;;;;;;5080066;28;20857;-52
2023/05/31 06:03:54;;;;;;;5.30;3.38;;;;;;;;;;5078903;28;20322;-53
2023/05/31 06:06:21;;;;;;;7.72;2.85;;;;;;;;;;5083800;28;20736;-52
2023/05/31 06:08:47;;;;;;;5.53;3.03;;;;;;;;;;5078208;28;20944;-52
2023/05/31 06:11:15;;;;;;;7.22;4.38;;;;;;;;;;5076852;28;20284;-53
2023/05/31 06:13:43;;;;;;;6.07;4.00;;;;;;;;;;5078595;28;20590;-51
2023/05/31 06:16:10;;;;;;;8.75;5.68;;;;;;;;;;5082817;28;20223;-53
2023/05/31 06:18:38;;;;;;;7.70;4.88;;;;;;;;;;5075505;28;20288;-53
2023/05/31 06:21:04;;;;;;;4.53;3.80;;;;;;;;;;5081153;28;20304;-51
2023/05/31 06:23:31;;;;;;;5.03;3.50;;;;;;;;;;5083849;28;20238;-53
2023/05/31 06:25:57;;;;;;;4.80;3.38;;;;;;;;;;5083796;28;20235;-53
2023/05/31 06:28:24;;;;;;;5.22;3.75;;;;;;;;;;5070953;28;20255;-52
2023/05/31 06:30:50;;;;;;;7.68;3.97;;;;;;;;;;5079634;28;20663;-51
2023/05/31 06:33:17;;;;;;;6.25;3.35;;;;;;;;;;5073114;28;20230;-51
2023/05/31 06:35:45;;;;;;;6.70;3.72;;;;;;;;;;5081317;28;20237;-52
2023/05/31 06:38:15;;;;;;;6.28;3.08;;;;;;;;;;5073148;28;20318;-51
2023/05/31 06:40:42;;;;;;;10.18;3.45;;;;;;;;;;5074385;28;20782;-54
2023/05/31 06:43:09;;;;;;;7.22;3.40;;;;;;;;;;5078168;28;20237;-52
2023/05/31 06:45:35;;;;;;;5.32;3.15;;;;;;;;;;5073923;28;20226;-53
2023/05/31 06:48:01;;;;;;;3.97;2.30;;;;;;;;;;5076205;28;20226;-52
2023/05/31 06:50:28;;;;;;;7.22;3.95;;;;;;;;;;5081626;28;20236;-52
2023/05/31 06:52:56;;;;;;;7.97;3.38;;;;;;;;;;5078930;28;20223;-51
2023/05/31 06:55:22;;;;;;;6.15;2.30;;;;;;;;;;5079484;28;20272;-50
2023/05/31 06:57:48;;;;;;;5.72;2.10;;;;;;;;;;5083128;28;20255;-52
2023/05/31 07:00:15;;;;;;;3.53;2.15;;;;;;;;;;5084493;28;20317;-51
2023/05/31 07:02:42;;;;;;;3.63;2.47;;;;;;;;;;5081410;28;20249;-52
2023/05/31 07:05:08;;;;;;;7.65;3.55;;;;;;;;;;5079192;28;20250;-52
2023/05/31 07:07:35;;;;;;;2.67;2.13;;;;;;;;;;5080968;28;20267;-51
2023/05/31 07:10:03;;;;;;;5.95;2.85;;;;;;;;;;5074968;28;20592;-51
2023/05/31 07:12:30;;;;;;;5.82;2.30;;;;;;;;;;5086119;28;20238;-51
2023/05/31 07:14:56;;;;;;;3.20;2.30;;;;;;;;;;5083278;28;20781;-52
2023/05/31 07:17:22;;;;;;;4.97;3.00;;;;;;;;;;5082355;28;20229;-52
2023/05/31 07:19:50;;;;;;;2.75;2.30;;;;;;;;;;5082498;28;20234;-51
2023/05/31 07:22:17;;;;;;;3.58;2.10;;;;;;;;;;5078223;28;20316;-52
2023/05/31 07:24:43;;;;;;;2.53;2.33;;;;;;;;;;5082094;28;20318;-52
2023/05/31 07:27:11;;;;;;;4.28;2.10;;;;;;;;;;5077880;28;20249;-52
2023/05/31 07:29:38;;;;;;;3.00;2.00;;;;;;;;;;5079824;28;20231;-52
2023/05/31 07:32:04;;;;;;;2.63;2.05;;;;;;;;;;5080878;28;20265;-57
2023/05/31 07:34:31;;;;;;;9.48;2.63;;;;;;;;;;5071467;28;20239;-51
2023/05/31 07:36:58;;;;;;;2.25;1.50;;;;;;;;;;5080369;28;20688;-50
2023/05/31 07:39:24;;;;;;;4.18;1.83;;;;;;;;;;5080959;28;20331;-52
2023/05/31 07:41:51;;;;;;;5.65;1.85;;;;;;;;;;5077443;28;20241;-51
2023/05/31 07:44:19;;;;;;;4.35;2.08;;;;;;;;;;5074374;28;20231;-51
2023/05/31 07:46:46;;;;;;;5.65;2.40;;;;;;;;;;5085291;28;20257;-53
2023/05/31 07:49:12;;;;;;;3.97;1.85;;;;;;;;;;5085585;28;20258;-52
2023/05/31 07:51:39;;;;;;;4.70;2.40;;;;;;;;;;5083216;28;20238;-55
2023/05/31 07:54:05;;;;;;;3.95;2.17;;;;;;;;;;5084036;28;20376;-51
2023/05/31 07:56:32;;;;;;;5.50;2.38;;;;;;;;;;5084572;28;20313;-52
2023/05/31 07:58:58;;;;;;;4.05;2.22;;;;;;;;;;5089982;28;20804;-52
2023/05/31 08:01:26;;;;;;;4.68;2.83;;;;;;;;;;5095927;28;20282;-55
2023/05/31 08:03:54;;;;;;;13.93;7.25;;;;;;;;;;5104001;28;20566;-52
2023/05/31 08:06:22;;;;;;;6.65;2.95;;;;;;;;;;5103681;28;20218;-52
2023/05/31 08:08:48;;;;;;;3.63;1.90;;;;;;;;;;5100257;28;20264;-51
2023/05/31 08:11:15;;;;;;;4.75;2.25;;;;;;;;;;5088027;28;20261;-51
2023/05/31 08:13:41;;;;;;;2.08;1.88;;;;;;;;;;5080129;28;20661;-52
2023/05/31 08:16:07;;;;;;;5.00;2.63;;;;;;;;;;5080996;28;20230;-53
2023/05/31 08:18:36;;;;;;;4.07;2.08;;;;;;;;;;5084317;28;20234;-51
2023/05/31 08:21:02;;;;;;;3.95;2.28;;;;;;;;;;5085088;28;20742;-52
2023/05/31 08:23:29;;;;;;;2.47;2.00;;;;;;;;;;5087112;28;20230;-54
2023/05/31 08:25:56;;;;;;;2.13;1.63;;;;;;;;;;5079977;28;20293;-53
2023/05/31 08:28:22;;;;;;;5.18;2.05;;;;;;;;;;5086875;28;20235;-56
2023/05/31 08:30:49;;;;;;;7.15;2.58;;;;;;;;;;5085116;28;20483;-52
2023/05/31 08:33:16;;;;;;;3.22;2.22;;;;;;;;;;5082305;28;20235;-50
2023/05/31 08:35:44;;;;;;;3.60;1.77;;;;;;;;;;5076922;28;20802;-52
2023/05/31 08:38:10;;;;;;;2.03;1.65;;;;;;;;;;5076760;27;20246;-51
2023/05/31 08:40:37;;;;;;;5.45;2.13;;;;;;;;;;5083105;28;20234;-52
2023/05/31 08:43:07;;;;;;;2.25;1.42;;;;;;;;;;5083150;28;20254;-51
2023/05/31 08:45:35;;;;;;;3.53;2.13;;;;;;;;;;5081860;28;20767;-50
2023/05/31 08:48:06;;;;;;;3.33;1.67;;;;;;;;;;5080974;28;20780;-53
2023/05/31 08:50:33;;;;;;;4.25;2.72;;;;;;;;;;5086468;28;20238;-52
2023/05/31 08:53:01;;;;;;;3.78;1.80;;;;;;;;;;5081400;28;20245;-52
2023/05/31 08:55:29;;;;;;;3.88;1.42;;;;;;;;;;5069354;28;20227;-51
2023/05/31 08:57:57;;;;;;;2.38;1.40;;;;;;;;;;5086081;28;20568;-52
2023/05/31 09:00:23;;;;;;;2.65;1.52;;;;;;;;;;5084766;28;20234;-53
2023/05/31 09:02:51;;;;;;;1.80;1.38;;;;;;;;;;5081540;28;20246;-52
2023/05/31 09:05:18;;;;;;;4.35;1.83;;;;;;;;;;5079455;28;20246;-52
2023/05/31 09:07:46;;;;;;;4.63;1.95;;;;;;;;;;5075431;28;22894;-52
2023/05/31 09:10:15;;;;;;;1.75;1.60;;;;;;;;;;5081045;28;20339;-52
2023/05/31 09:12:42;;;;;;;1.25;1.05;;;;;;;;;;5080846;28;20227;-52
2023/05/31 09:15:14;;;;;;;4.35;1.63;;;;;;;;;;5077812;28;20238;-53
2023/05/31 09:17:42;;;;;;;1.88;1.35;;;;;;;;;;5084617;27;20235;-53
2023/05/31 09:20:09;;;;;;;4.75;1.90;;;;;;;;;;5082614;28;20230;-51
2023/05/31 09:22:35;;;;;;;4.10;1.25;;;;;;;;;;5075584;28;20330;-52
2023/05/31 09:25:02;;;;;;;5.30;1.45;;;;;;;;;;5081525;28;20331;-51
2023/05/31 09:27:35;;;;;;;1.92;1.67;;;;;;;;;;5083286;28;20230;-52
2023/05/31 09:30:05;;;;;;;5.05;1.55;;;;;;;;;;5088853;28;20317;-51
2023/05/31 09:32:31;;;;;;;1.83;1.65;;;;;;;;;;5085545;28;20238;-51
2023/05/31 09:35:10;;;;;;;3.83;2.30;;;;;;;;;;5083443;28;20258;-52
2023/05/31 09:37:42;;;;;;;2.92;1.77;;;;;;;;;;5084711;28;20313;-53
2023/05/31 09:40:09;;;;;;;2.67;1.48;;;;;;;;;;5084792;28;20230;-53
2023/05/31 09:42:37;;;;;;;1.75;1.40;;;;;;;;;;5081694;28;20238;-51
2023/05/31 09:45:04;;;;;;;3.60;1.65;;;;;;;;;;5076510;28;20246;-52
2023/05/31 09:47:30;;;;;;;2.45;1.55;;;;;;;;;;5073657;28;20242;-53
2023/05/31 09:49:57;;;;;;;3.67;1.58;;;;;;;;;;5085853;28;20226;-52
2023/05/31 09:52:26;;;;;;;4.82;1.75;;;;;;;;;;5085528;28;20247;-52
2023/05/31 09:54:52;;;;;;;5.30;1.55;;;;;;;;;;5085667;28;20226;-53
2023/05/31 09:57:31;;;;;;;5.25;1.55;;;;;;;;;;5079425;28;20321;-53
2023/05/31 10:00:06;;;;;;;2.83;1.67;;;;;;;;;;5083707;28;20309;-53
2023/05/31 10:02:32;;;;;;;2.35;1.83;;;;;;;;;;5077051;28;20512;-52
2023/05/31 10:04:58;;;;;;;5.53;1.45;;;;;;;;;;5082722;28;20238;-52
2023/05/31 10:07:27;;;;;;;4.95;1.70;;;;;;;;;;5084929;28;20757;-51
2023/05/31 10:09:54;;;;;;;7.63;1.80;;;;;;;;;;5085454;28;20286;-52
2023/05/31 10:12:22;;;;;;;1.95;1.55;;;;;;;;;;5080722;28;20237;-51
2023/05/31 10:14:54;;;;;;;2.38;1.38;;;;;;;;;;5085189;28;20243;-51
2023/05/31 10:17:24;;;;;;;2.15;1.13;;;;;;;;;;5090718;28;20838;-52
2023/05/31 10:19:55;;;;;;;1.15;1.10;;;;;;;;;;5088633;28;20230;-54
2023/05/31 10:22:22;;;;;;;1.90;1.75;;;;;;;;;;5084428;28;20235;-52
2023/05/31 10:24:52;;;;;;;7.25;2.10;;;;;;;;;;5085027;28;20313;-52
2023/05/31 10:27:21;;;;;;;1.60;1.35;;;;;;;;;;5080572;28;20244;-52
2023/05/31 10:29:51;;;;;;;3.78;1.77;;;;;;;;;;5084496;28;20233;-51
2023/05/31 10:32:20;;;;;;;5.05;1.52;;;;;;;;;;5078700;28;20367;-51
2023/05/31 10:34:48;;;;;;;4.72;1.40;;;;;;;;;;5082878;28;20242;-52
2023/05/31 10:37:15;;;;;;;4.80;1.67;;;;;;;;;;5080941;28;20226;-52
2023/05/31 10:39:45;;;;;;;1.38;1.23;;;;;;;;;;5080196;28;20235;-52
2023/05/31 10:42:15;;;;;;;1.60;1.10;;;;;;;;;;5078516;28;20234;-52
2023/05/31 10:44:47;;;;;;;1.23;1.10;;;;;;;;;;5082563;28;20586;-51
2023/05/31 10:47:15;;;;;;;1.75;1.40;;;;;;;;;;5083334;28;20868;-54
2023/05/31 10:49:43;;;;;;;1.30;1.20;;;;;;;;;;5081266;28;20226;-51
2023/05/31 10:52:10;;;;;;;1.55;1.17;;;;;;;;;;5082498;28;20288;-52
2023/05/31 10:54:39;;;;;;;1.83;1.27;;;;;;;;;;5077113;28;20227;-53
2023/05/31 10:57:07;;;;;;;0.98;0.98;;;;;;;;;;5085054;28;20226;-52
2023/05/31 10:59:40;;;;;;;1.33;1.10;;;;;;;;;;5094323;28;20238;-52
2023/05/31 11:02:07;;;;;;;2.05;1.27;;;;;;;;;;5090140;28;20240;-55
2023/05/31 11:04:33;;;;;;;1.25;0.90;;;;;;;;;;5087523;28;20303;-51
2023/05/31 11:07:14;;;;;;;1.90;1.25;;;;;;;;;;5091333;28;20238;-59
2023/05/31 11:09:40;;;;;;;2.08;1.05;;;;;;;;;;5074725;28;20348;-52
2023/05/31 11:12:07;;;;;;;1.80;1.10;;;;;;;;;;5074244;28;20266;-53
2023/05/31 11:14:33;;;;;;;1.98;0.85;;;;;;;;;;5075572;28;20353;-52
2023/05/31 11:17:20;;;;;;;0.88;0.75;;;;;;;;;;5078613;28;20226;-53
2023/05/31 11:19:52;;;;;;;3.55;1.67;;;;;;;;;;5070258;28;20245;-52
2023/05/31 11:22:22;;;;;;;7.72;2.72;;;;;;;;;;5080217;27;20338;-52
2023/05/31 11:24:50;;;;;;;3.90;1.92;;;;;;;;;;5082047;28;20230;-52
2023/05/31 11:27:18;;;;;;;5.13;2.15;;;;;;;;;;5078867;28;20249;-53
2023/05/31 11:29:56;;;;;;;1.75;0.85;;;;;;;;;;5078841;28;20256;-51
2023/05/31 11:32:23;;;;;;;2.08;1.02;;;;;;;;;;5080820;28;20230;-52
2023/05/31 11:34:50;;;;;;;1.20;1.08;;;;;;;;;;5079618;28;20230;-54
2023/05/31 11:37:17;;;;;;;1.90;1.17;;;;;;;;;;5076470;28;20234;-52
2023/05/31 11:39:45;;;;;;;0.95;0.95;;;;;;;;;;5081327;28;20325;-53
2023/05/31 11:42:11;;;;;;;0.95;0.95;;;;;;;;;;5076971;28;20233;-53
2023/05/31 11:44:42;;;;;;;1.40;0.90;;;;;;;;;;5080846;28;20237;-51
2023/05/31 11:47:10;;;;;;;2.38;0.80;;;;;;;;;;5079104;28;20321;-53
2023/05/31 11:49:37;;;;;;;1.35;0.60;;;;;;;;;;5076013;28;20237;-53
2023/05/31 11:52:04;;;;;;;2.30;0.65;;;;;;;;;;5081827;28;20325;-52
2023/05/31 11:54:32;;;;;;;1.48;1.13;;;;;;;;;;5078067;28;20245;-52
2023/05/31 11:57:02;;;;;;;9.77;3.38;;;;;;;;;;5081584;28;20234;-52
2023/05/31 11:59:28;;;;;;;3.55;1.52;;;;;;;;;;5071105;28;20222;-52
2023/05/31 12:01:59;;;;;;;2.20;1.00;;;;;;;;;;5075839;28;20238;-52
2023/05/31 12:04:32;;;;;;;1.48;1.10;;;;;;;;;;5078433;28;20231;-51
2023/05/31 12:06:59;;;;;;;1.50;1.00;;;;;;;;;;5084974;28;20242;-51
2023/05/31 12:09:26;;;;;;;6.28;2.35;;;;;;;;;;5072849;28;20227;-53
2023/05/31 12:11:52;;;;;;;3.45;1.10;;;;;;;;;;5080425;28;20272;-52
2023/05/31 12:14:20;;;;;;;0.88;0.80;;;;;;;;;;5079198;28;20237;-52
2023/05/31 12:16:49;;;;;;;3.95;1.00;;;;;;;;;;5080307;28;20234;-52
2023/05/31 12:19:15;;;;;;;1.42;0.85;;;;;;;;;;5079766;28;20223;-52
2023/05/31 12:21:42;;;;;;;0.82;0.82;;;;;;;;;;5073814;28;20231;-52
2023/05/31 12:24:11;;;;;;;1.02;0.93;;;;;;;;;;5078429;28;21463;-52
2023/05/31 12:26:38;;;;;;;1.50;0.80;;;;;;;;;;5074095;28;20322;-52
2023/05/31 12:29:04;;;;;;;3.63;0.88;;;;;;;;;;5083349;28;20341;-54
2023/05/31 12:31:34;;;;;;;0.77;0.73;;;;;;;;;;5082164;28;20247;-56
2023/05/31 12:34:06;;;;;;;1.48;0.80;;;;;;;;;;5079893;28;20321;-53
2023/05/31 12:36:37;;;;;;;1.48;0.80;;;;;;;;;;5082744;28;20238;-52
2023/05/31 12:39:07;;;;;;;0.73;0.70;;;;;;;;;;5089322;28;20294;-53
2023/05/31 12:41:33;;;;;;;1.25;0.80;;;;;;;;;;5084137;28;20776;-52
2023/05/31 12:44:00;;;;;;;0.73;0.73;;;;;;;;;;5085110;28;20229;-58
2023/05/31 12:46:26;;;;;;;0.80;0.80;;;;;;;;;;5083528;28;20293;-55
2023/05/31 12:48:54;;;;;;;1.23;0.68;;;;;;;;;;5085199;28;20222;-51
2023/05/31 12:51:21;;;;;;;1.00;0.75;;;;;;;;;;5094817;28;20252;-58
2023/05/31 12:53:48;;;;;;;1.10;0.68;;;;;;;;;;5099692;28;20229;-52
2023/05/31 12:56:14;;;;;;;1.27;1.00;;;;;;;;;;5109047;28;20238;-53
2023/05/31 12:58:41;;;;;;;2.28;0.93;;;;;;;;;;5100135;28;20242;-66
2023/05/31 13:01:07;;;;;;;0.60;0.60;;;;;;;;;;5083104;28;20732;-51
2023/05/31 13:03:34;;;;;;;0.75;0.75;;;;;;;;;;5079133;28;20241;-53
2023/05/31 13:06:04;;;;;;;2.55;1.10;;;;;;;;;;5080096;28;20245;-52
2023/05/31 13:08:30;;;;;;;1.00;0.80;;;;;;;;;;5084109;28;20329;-52
2023/05/31 13:10:57;;;;;;;1.30;0.90;;;;;;;;;;5079006;28;20331;-55
2023/05/31 13:13:23;;;;;;;0.93;0.93;;;;;;;;;;5081455;28;20780;-51
2023/05/31 13:15:49;;;;;;;0.95;0.73;;;;;;;;;;5084047;28;20257;-53
2023/05/31 13:18:16;;;;;;;4.38;0.98;;;;;;;;;;5086996;28;20654;-51
2023/05/31 13:20:42;;;;;;;0.68;0.68;;;;;;;;;;5083051;28;20226;-51
2023/05/31 13:23:10;;;;;;;1.60;1.02;;;;;;;;;;5084195;28;20245;-51
2023/05/31 13:25:36;;;;;;;1.05;0.80;;;;;;;;;;5082159;28;20239;-52
2023/05/31 13:28:03;;;;;;;1.95;1.10;;;;;;;;;;5077720;28;20230;-52
2023/05/31 13:30:29;;;;;;;1.75;1.20;;;;;;;;;;5080301;28;20329;-52
2023/05/31 13:32:55;;;;;;;1.55;0.82;;;;;;;;;;5083085;28;20235;-53
2023/05/31 13:35:22;;;;;;;2.08;0.93;;;;;;;;;;5083352;28;20250;-65
2023/05/31 13:37:51;;;;;;;1.00;0.90;;;;;;;;;;5085881;28;20236;-53
2023/05/31 13:40:19;;;;;;;1.13;1.02;;;;;;;;;;5078375;28;20239;-51
2023/05/31 13:42:45;;;;;;;0.68;0.68;;;;;;;;;;5082400;28;20325;-51
2023/05/31 13:45:11;;;;;;;0.93;0.80;;;;;;;;;;5082656;28;20227;-51
2023/05/31 13:47:38;;;;;;;1.13;0.90;;;;;;;;;;5075881;28;20250;-52
2023/05/31 13:50:05;;;;;;;1.55;1.02;;;;;;;;;;5081039;28;21109;-51
2023/05/31 13:52:31;;;;;;;1.80;1.10;;;;;;;;;;5079021;28;20268;-52
2023/05/31 13:54:58;;;;;;;1.17;0.68;;;;;;;;;;5078874;28;20310;-52
2023/05/31 13:57:25;;;;;;;0.93;0.77;;;;;;;;;;5077775;28;20299;-51
2023/05/31 13:59:52;;;;;;;1.75;1.00;;;;;;;;;;5082638;28;20291;-53
2023/05/31 14:02:18;;;;;;;1.90;1.00;;;;;;;;;;5076592;28;20725;-52
2023/05/31 14:04:45;;;;;;;0.98;0.80;;;;;;;;;;5082915;28;20266;-51
2023/05/31 14:07:11;;;;;;;0.73;0.73;;;;;;;;;;5080189;28;20235;-52
2023/05/31 14:09:38;;;;;;;1.95;1.13;;;;;;;;;;5083065;28;20238;-52
2023/05/31 14:12:05;;;;;;;1.60;1.02;;;;;;;;;;5075235;28;20314;-51
2023/05/31 14:14:33;;;;;;;1.58;1.23;;;;;;;;;;5079388;28;20230;-52
2023/05/31 14:17:00;;;;;;;1.45;0.90;;;;;;;;;;5082165;28;20233;-52
2023/05/31 14:19:27;;;;;;;1.25;1.15;;;;;;;;;;5080484;28;20231;-52
2023/05/31 14:21:53;;;;;;;1.35;0.80;;;;;;;;;;5074387;28;20667;-53
2023/05/31 14:24:20;;;;;;;0.93;0.90;;;;;;;;;;5080814;28;20227;-53
2023/05/31 14:26:46;;;;;;;0.90;0.90;;;;;;;;;;5078595;27;20234;-51
2023/05/31 14:29:12;;;;;;;1.08;1.00;;;;;;;;;;5081218;28;20417;-51
2023/05/31 14:31:40;;;;;;;1.10;1.00;;;;;;;;;;5079006;28;20357;-52
2023/05/31 14:34:07;;;;;;;1.73;1.17;;;;;;;;;;5078455;28;20234;-52
2023/05/31 14:36:33;;;;;;;1.73;1.00;;;;;;;;;;5080683;28;20254;-52
2023/05/31 14:38:59;;;;;;;1.80;1.20;;;;;;;;;;5082149;28;20225;-52
2023/05/31 14:41:26;;;;;;;3.20;1.23;;;;;;;;;;5082067;28;20256;-53
2023/05/31 14:43:53;;;;;;;1.98;1.05;;;;;;;;;;5087076;28;20305;-52